sensor_id;sensor_type;location;lat;lon;timestamp;temperature;humidity
702;DHT22;334;48.808;9.222;2023-06-26T00:00:57;25.40;1.00
702;DHT22;334;48.808;9.222;2023-06-26T00:01:59;25.50;1.00
702;DHT22;334;48.808;9.222;2023-06-26T00:03:00;25.40;1.00
702;DHT22;334;48.808;9.222;2023-06-26T00:04:03;25.40;1.00
702;DHT22;334;48.808;9.222;2023-06-26T00:05:05;25.40;1.00
702;DHT22;334;48.808;9.222;2023-06-26T00:06:08;25.40;1.00
702;DHT22;334;48.808;9.222;2023-06-26T00:07:10;25.40;1.00
702;DHT22;334;48.808;9.222;2023-06-26T00:08:11;25.40;1.00
702;DHT22;334;48.808;9.222;2023-06-26T00:09:13;25.40;1.00
702;DHT22;334;48.808;9.222;2023-06-26T00:10:15;25.40;1.00
702;DHT22;334;48.808;9.222;2023-06-26T00:11:17;25.40;1.00
702;DHT22;334;48.808;9.222;2023-06-26T00:12:18;25.40;1.00
702;DHT22;334;48.808;9.222;2023-06-26T00:13:21;25.40;1.00
702;DHT22;334;48.808;9.222;2023-06-26T00:14:23;25.40;1.00
702;DHT22;334;48.808;9.222;2023-06-26T00:15:24;25.40;1.00
702;DHT22;334;48.808;9.222;2023-06-26T00:16:27;25.40;1.00
702;DHT22;334;48.808;9.222;2023-06-26T00:17:29;25.40;1.00
702;DHT22;334;48.808;9.222;2023-06-26T00:18:36;25.40;1.00
702;DHT22;334;48.808;9.222;2023-06-26T00:19:37;25.40;1.00
702;DHT22;334;48.808;9.222;2023-06-26T00:20:39;25.40;1.00
702;DHT22;334;48.808;9.222;2023-06-26T00:21:42;25.40;1.00
702;DHT22;334;48.808;9.222;2023-06-26T00:22:49;25.40;1.00
702;DHT22;334;48.808;9.222;2023-06-26T00:23:52;25.40;1.00
702;DHT22;334;48.808;9.222;2023-06-26T00:24:54;25.40;1.00
702;DHT22;334;48.808;9.222;2023-06-26T00:25:56;25.30;1.00
702;DHT22;334;48.808;9.222;2023-06-26T00:26:57;25.30;1.00
702;DHT22;334;48.808;9.222;2023-06-26T00:28:00;25.30;1.00
702;DHT22;334;48.808;9.222;2023-06-26T00:29:02;25.30;1.00
702;DHT22;334;48.808;9.222;2023-06-26T00:30:05;25.40;1.00
702;DHT22;334;48.808;9.222;2023-06-26T00:31:06;25.30;1.00
702;DHT22;334;48.808;9.222;2023-06-26T00:32:08;25.30;1.00
702;DHT22;334;48.808;9.222;2023-06-26T00:33:10;25.40;1.00
702;DHT22;334;48.808;9.222;2023-06-26T00:34:12;25.30;1.00
702;DHT22;334;48.808;9.222;2023-06-26T00:35:13;25.30;1.00
702;DHT22;334;48.808;9.222;2023-06-26T00:36:15;25.30;1.00
702;DHT22;334;48.808;9.222;2023-06-26T00:37:17;25.30;1.00
702;DHT22;334;48.808;9.222;2023-06-26T00:38:19;25.20;1.00
702;DHT22;334;48.808;9.222;2023-06-26T00:39:20;25.20;1.00
702;DHT22;334;48.808;9.222;2023-06-26T00:40:22;25.30;1.00
702;DHT22;334;48.808;9.222;2023-06-26T00:41:24;25.20;1.00
702;DHT22;334;48.808;9.222;2023-06-26T00:42:26;25.20;1.00
702;DHT22;334;48.808;9.222;2023-06-26T00:43:27;25.20;1.00
702;DHT22;334;48.808;9.222;2023-06-26T00:44:29;25.20;1.00
702;DHT22;334;48.808;9.222;2023-06-26T00:45:31;25.20;1.00
702;DHT22;334;48.808;9.222;2023-06-26T00:46:43;25.20;1.00
702;DHT22;334;48.808;9.222;2023-06-26T00:47:45;25.20;1.00
702;DHT22;334;48.808;9.222;2023-06-26T00:48:48;25.20;1.00
702;DHT22;334;48.808;9.222;2023-06-26T00:49:50;25.20;1.00
702;DHT22;334;48.808;9.222;2023-06-26T00:50:52;25.20;1.00
702;DHT22;334;48.808;9.222;2023-06-26T00:51:55;25.10;1.00
702;DHT22;334;48.808;9.222;2023-06-26T00:52:57;25.10;1.00
702;DHT22;334;48.808;9.222;2023-06-26T00:54:02;25.10;1.00
702;DHT22;334;48.808;9.222;2023-06-26T00:55:04;25.10;1.00
702;DHT22;334;48.808;9.222;2023-06-26T00:56:06;25.10;1.00
702;DHT22;334;48.808;9.222;2023-06-26T00:57:09;25.10;1.00
702;DHT22;334;48.808;9.222;2023-06-26T00:58:11;25.00;1.00
702;DHT22;334;48.808;9.222;2023-06-26T00:59:13;25.00;1.00
702;DHT22;334;48.808;9.222;2023-06-26T01:00:15;25.00;1.00
702;DHT22;334;48.808;9.222;2023-06-26T01:01:17;25.00;1.00
702;DHT22;334;48.808;9.222;2023-06-26T01:02:23;24.90;1.00
702;DHT22;334;48.808;9.222;2023-06-26T01:03:25;24.90;1.00
702;DHT22;334;48.808;9.222;2023-06-26T01:04:27;24.90;1.00
702;DHT22;334;48.808;9.222;2023-06-26T01:05:34;24.80;1.00
702;DHT22;334;48.808;9.222;2023-06-26T01:06:35;24.80;1.00
702;DHT22;334;48.808;9.222;2023-06-26T01:07:38;24.80;1.00
702;DHT22;334;48.808;9.222;2023-06-26T01:08:41;24.70;1.00
702;DHT22;334;48.808;9.222;2023-06-26T01:09:43;24.70;1.00
702;DHT22;334;48.808;9.222;2023-06-26T01:10:45;24.70;1.00
702;DHT22;334;48.808;9.222;2023-06-26T01:11:47;24.60;1.00
702;DHT22;334;48.808;9.222;2023-06-26T01:12:49;24.60;1.00
702;DHT22;334;48.808;9.222;2023-06-26T01:13:51;24.60;1.00
702;DHT22;334;48.808;9.222;2023-06-26T01:14:53;24.60;1.00
702;DHT22;334;48.808;9.222;2023-06-26T01:16:05;24.60;1.00
702;DHT22;334;48.808;9.222;2023-06-26T01:17:09;24.60;1.00
702;DHT22;334;48.808;9.222;2023-06-26T01:18:18;24.50;1.00
702;DHT22;334;48.808;9.222;2023-06-26T01:21:40;24.50;1.00
702;DHT22;334;48.808;9.222;2023-06-26T01:24:16;24.40;1.00
702;DHT22;334;48.808;9.222;2023-06-26T01:25:38;24.40;1.00
702;DHT22;334;48.808;9.222;2023-06-26T01:26:48;24.40;1.00
702;DHT22;334;48.808;9.222;2023-06-26T01:27:52;24.30;1.00
702;DHT22;334;48.808;9.222;2023-06-26T01:28:57;24.30;1.00
702;DHT22;334;48.808;9.222;2023-06-26T01:30:02;24.30;1.00
702;DHT22;334;48.808;9.222;2023-06-26T01:31:08;24.30;1.00
702;DHT22;334;48.808;9.222;2023-06-26T01:32:12;24.30;1.00
702;DHT22;334;48.808;9.222;2023-06-26T01:33:15;24.30;1.00
702;DHT22;334;48.808;9.222;2023-06-26T01:34:18;24.30;1.00
702;DHT22;334;48.808;9.222;2023-06-26T01:35:20;24.30;1.00
702;DHT22;334;48.808;9.222;2023-06-26T01:36:22;24.30;1.00
702;DHT22;334;48.808;9.222;2023-06-26T01:37:26;24.30;1.00
702;DHT22;334;48.808;9.222;2023-06-26T01:38:28;24.30;1.00
702;DHT22;334;48.808;9.222;2023-06-26T01:39:30;24.30;1.00
702;DHT22;334;48.808;9.222;2023-06-26T01:40:32;24.30;1.00
702;DHT22;334;48.808;9.222;2023-06-26T01:41:35;24.30;1.00
702;DHT22;334;48.808;9.222;2023-06-26T01:42:42;24.30;1.00
702;DHT22;334;48.808;9.222;2023-06-26T01:45:26;24.30;1.00
702;DHT22;334;48.808;9.222;2023-06-26T01:46:43;24.30;1.00
702;DHT22;334;48.808;9.222;2023-06-26T01:47:51;24.30;1.00
702;DHT22;334;48.808;9.222;2023-06-26T01:50:17;24.30;1.00
702;DHT22;334;48.808;9.222;2023-06-26T01:51:21;24.30;1.00
702;DHT22;334;48.808;9.222;2023-06-26T01:52:42;24.30;1.00
702;DHT22;334;48.808;9.222;2023-06-26T01:53:53;24.30;1.00
702;DHT22;334;48.808;9.222;2023-06-26T01:56:08;24.30;1.00
702;DHT22;334;48.808;9.222;2023-06-26T01:57:14;24.20;1.00
702;DHT22;334;48.808;9.222;2023-06-26T01:58:19;24.20;1.00
702;DHT22;334;48.808;9.222;2023-06-26T01:59:22;24.20;1.00
702;DHT22;334;48.808;9.222;2023-06-26T02:00:26;24.20;1.00
702;DHT22;334;48.808;9.222;2023-06-26T02:01:28;24.20;1.00
702;DHT22;334;48.808;9.222;2023-06-26T02:02:41;24.10;1.00
702;DHT22;334;48.808;9.222;2023-06-26T02:03:48;24.20;1.00
702;DHT22;334;48.808;9.222;2023-06-26T02:04:50;24.20;1.00
702;DHT22;334;48.808;9.222;2023-06-26T02:05:52;24.10;1.00
702;DHT22;334;48.808;9.222;2023-06-26T02:06:54;24.10;1.00
702;DHT22;334;48.808;9.222;2023-06-26T02:07:56;24.10;1.00
702;DHT22;334;48.808;9.222;2023-06-26T02:08:58;24.10;1.00
702;DHT22;334;48.808;9.222;2023-06-26T02:10:00;24.10;1.00
702;DHT22;334;48.808;9.222;2023-06-26T02:11:02;24.10;1.00
702;DHT22;334;48.808;9.222;2023-06-26T02:12:04;24.10;1.00
702;DHT22;334;48.808;9.222;2023-06-26T02:13:06;24.10;1.00
702;DHT22;334;48.808;9.222;2023-06-26T02:14:07;24.10;1.00
702;DHT22;334;48.808;9.222;2023-06-26T02:15:10;24.10;1.00
702;DHT22;334;48.808;9.222;2023-06-26T02:16:12;24.10;1.00
702;DHT22;334;48.808;9.222;2023-06-26T02:17:16;24.10;1.00
702;DHT22;334;48.808;9.222;2023-06-26T02:18:18;24.10;1.00
702;DHT22;334;48.808;9.222;2023-06-26T02:19:19;24.10;1.00
702;DHT22;334;48.808;9.222;2023-06-26T02:20:23;24.10;1.00
702;DHT22;334;48.808;9.222;2023-06-26T02:21:24;24.10;1.00
702;DHT22;334;48.808;9.222;2023-06-26T02:22:26;24.10;1.00
702;DHT22;334;48.808;9.222;2023-06-26T02:23:30;24.10;1.00
702;DHT22;334;48.808;9.222;2023-06-26T02:24:32;24.00;1.00
702;DHT22;334;48.808;9.222;2023-06-26T02:25:35;24.00;1.00
702;DHT22;334;48.808;9.222;2023-06-26T02:26:37;24.00;1.00
702;DHT22;334;48.808;9.222;2023-06-26T02:27:39;24.10;1.00
702;DHT22;334;48.808;9.222;2023-06-26T02:28:41;24.00;1.00
702;DHT22;334;48.808;9.222;2023-06-26T02:29:42;24.00;1.00
702;DHT22;334;48.808;9.222;2023-06-26T02:30:44;24.00;1.00
702;DHT22;334;48.808;9.222;2023-06-26T02:31:46;24.00;1.00
702;DHT22;334;48.808;9.222;2023-06-26T02:32:48;24.00;1.00
702;DHT22;334;48.808;9.222;2023-06-26T02:33:49;24.00;1.00
702;DHT22;334;48.808;9.222;2023-06-26T02:34:51;24.00;1.00
702;DHT22;334;48.808;9.222;2023-06-26T02:35:53;24.00;1.00
702;DHT22;334;48.808;9.222;2023-06-26T02:36:55;24.00;1.00
702;DHT22;334;48.808;9.222;2023-06-26T02:37:57;24.00;1.00
702;DHT22;334;48.808;9.222;2023-06-26T02:38:59;23.90;1.00
702;DHT22;334;48.808;9.222;2023-06-26T02:40:01;23.90;1.00
702;DHT22;334;48.808;9.222;2023-06-26T02:41:03;23.90;1.00
702;DHT22;334;48.808;9.222;2023-06-26T02:42:05;24.00;1.00
702;DHT22;334;48.808;9.222;2023-06-26T02:43:06;23.90;1.00
702;DHT22;334;48.808;9.222;2023-06-26T02:44:08;23.80;1.00
702;DHT22;334;48.808;9.222;2023-06-26T02:45:10;23.80;1.00
702;DHT22;334;48.808;9.222;2023-06-26T02:46:12;23.80;1.00
702;DHT22;334;48.808;9.222;2023-06-26T02:47:13;23.70;1.00
702;DHT22;334;48.808;9.222;2023-06-26T02:48:15;23.80;1.00
702;DHT22;334;48.808;9.222;2023-06-26T02:49:17;23.80;1.00
702;DHT22;334;48.808;9.222;2023-06-26T02:50:23;23.80;1.00
702;DHT22;334;48.808;9.222;2023-06-26T02:51:25;23.70;1.00
702;DHT22;334;48.808;9.222;2023-06-26T02:52:27;23.70;1.00
702;DHT22;334;48.808;9.222;2023-06-26T02:53:31;23.80;1.00
702;DHT22;334;48.808;9.222;2023-06-26T02:54:32;23.80;1.00
702;DHT22;334;48.808;9.222;2023-06-26T02:55:34;23.80;1.00
702;DHT22;334;48.808;9.222;2023-06-26T02:56:36;23.80;1.00
702;DHT22;334;48.808;9.222;2023-06-26T02:57:48;23.80;1.00
702;DHT22;334;48.808;9.222;2023-06-26T02:58:49;23.70;1.00
702;DHT22;334;48.808;9.222;2023-06-26T02:59:51;23.80;1.00
702;DHT22;334;48.808;9.222;2023-06-26T03:00:53;23.70;1.00
702;DHT22;334;48.808;9.222;2023-06-26T03:01:55;23.70;1.00
702;DHT22;334;48.808;9.222;2023-06-26T03:02:57;23.70;1.00
702;DHT22;334;48.808;9.222;2023-06-26T03:03:59;23.70;1.00
702;DHT22;334;48.808;9.222;2023-06-26T03:05:03;23.70;1.00
702;DHT22;334;48.808;9.222;2023-06-26T03:06:08;23.70;1.00
702;DHT22;334;48.808;9.222;2023-06-26T03:07:10;23.70;1.00
702;DHT22;334;48.808;9.222;2023-06-26T03:08:12;23.70;1.00
702;DHT22;334;48.808;9.222;2023-06-26T03:09:14;23.70;1.00
702;DHT22;334;48.808;9.222;2023-06-26T03:10:16;23.70;1.00
702;DHT22;334;48.808;9.222;2023-06-26T03:11:18;23.70;1.00
702;DHT22;334;48.808;9.222;2023-06-26T03:12:19;23.70;1.00
702;DHT22;334;48.808;9.222;2023-06-26T03:13:21;23.70;1.00
702;DHT22;334;48.808;9.222;2023-06-26T03:14:23;23.70;1.00
702;DHT22;334;48.808;9.222;2023-06-26T03:15:25;23.70;1.00
702;DHT22;334;48.808;9.222;2023-06-26T03:16:27;23.70;1.00
702;DHT22;334;48.808;9.222;2023-06-26T03:17:30;23.70;1.00
702;DHT22;334;48.808;9.222;2023-06-26T03:18:32;23.70;1.00
702;DHT22;334;48.808;9.222;2023-06-26T03:19:33;23.70;1.00
702;DHT22;334;48.808;9.222;2023-06-26T03:20:35;23.70;1.00
702;DHT22;334;48.808;9.222;2023-06-26T03:21:37;23.70;1.00
702;DHT22;334;48.808;9.222;2023-06-26T03:22:39;23.60;1.00
702;DHT22;334;48.808;9.222;2023-06-26T03:23:41;23.60;1.00
702;DHT22;334;48.808;9.222;2023-06-26T03:24:44;23.60;1.00
702;DHT22;334;48.808;9.222;2023-06-26T03:25:47;23.50;1.00
702;DHT22;334;48.808;9.222;2023-06-26T03:26:49;23.50;1.00
702;DHT22;334;48.808;9.222;2023-06-26T03:27:50;23.50;1.00
702;DHT22;334;48.808;9.222;2023-06-26T03:28:52;23.40;1.00
702;DHT22;334;48.808;9.222;2023-06-26T03:29:55;23.40;1.00
702;DHT22;334;48.808;9.222;2023-06-26T03:30:56;23.30;1.00
702;DHT22;334;48.808;9.222;2023-06-26T03:31:58;23.20;1.00
702;DHT22;334;48.808;9.222;2023-06-26T03:33:00;23.20;1.00
702;DHT22;334;48.808;9.222;2023-06-26T03:34:02;23.20;1.00
702;DHT22;334;48.808;9.222;2023-06-26T03:35:04;23.20;1.00
702;DHT22;334;48.808;9.222;2023-06-26T03:36:07;23.20;1.00
702;DHT22;334;48.808;9.222;2023-06-26T03:37:09;23.20;1.00
702;DHT22;334;48.808;9.222;2023-06-26T03:38:11;23.20;1.00
702;DHT22;334;48.808;9.222;2023-06-26T03:39:13;23.30;1.00
702;DHT22;334;48.808;9.222;2023-06-26T03:40:14;23.30;1.00
702;DHT22;334;48.808;9.222;2023-06-26T03:41:16;23.30;1.00
702;DHT22;334;48.808;9.222;2023-06-26T03:42:18;23.30;1.00
702;DHT22;334;48.808;9.222;2023-06-26T03:43:20;23.30;1.00
702;DHT22;334;48.808;9.222;2023-06-26T03:44:22;23.40;1.00
702;DHT22;334;48.808;9.222;2023-06-26T03:45:24;23.30;1.00
702;DHT22;334;48.808;9.222;2023-06-26T03:46:26;23.40;1.00
702;DHT22;334;48.808;9.222;2023-06-26T03:47:28;23.30;1.00
702;DHT22;334;48.808;9.222;2023-06-26T03:48:29;23.40;1.00
702;DHT22;334;48.808;9.222;2023-06-26T03:49:31;23.40;1.00
702;DHT22;334;48.808;9.222;2023-06-26T03:50:33;23.40;1.00
702;DHT22;334;48.808;9.222;2023-06-26T03:51:35;23.40;1.00
702;DHT22;334;48.808;9.222;2023-06-26T03:52:36;23.40;1.00
702;DHT22;334;48.808;9.222;2023-06-26T03:53:38;23.40;1.00
702;DHT22;334;48.808;9.222;2023-06-26T03:54:40;23.40;1.00
702;DHT22;334;48.808;9.222;2023-06-26T03:55:43;23.40;1.00
702;DHT22;334;48.808;9.222;2023-06-26T03:56:44;23.40;1.00
702;DHT22;334;48.808;9.222;2023-06-26T03:57:46;23.40;1.00
702;DHT22;334;48.808;9.222;2023-06-26T03:58:48;23.40;1.00
702;DHT22;334;48.808;9.222;2023-06-26T03:59:51;23.40;1.00
702;DHT22;334;48.808;9.222;2023-06-26T04:00:53;23.40;1.00
702;DHT22;334;48.808;9.222;2023-06-26T04:01:54;23.40;1.00
702;DHT22;334;48.808;9.222;2023-06-26T04:02:56;23.40;1.00
702;DHT22;334;48.808;9.222;2023-06-26T04:04:00;23.40;1.00
702;DHT22;334;48.808;9.222;2023-06-26T04:05:02;23.40;1.00
702;DHT22;334;48.808;9.222;2023-06-26T04:06:05;23.40;1.00
702;DHT22;334;48.808;9.222;2023-06-26T04:07:07;23.50;1.00
702;DHT22;334;48.808;9.222;2023-06-26T04:08:09;23.50;1.00
702;DHT22;334;48.808;9.222;2023-06-26T04:09:11;23.40;1.00
702;DHT22;334;48.808;9.222;2023-06-26T04:10:12;23.50;1.00
702;DHT22;334;48.808;9.222;2023-06-26T04:11:14;23.50;1.00
702;DHT22;334;48.808;9.222;2023-06-26T04:12:16;23.40;1.00
702;DHT22;334;48.808;9.222;2023-06-26T04:13:18;23.40;1.00
702;DHT22;334;48.808;9.222;2023-06-26T04:14:20;23.40;1.00
702;DHT22;334;48.808;9.222;2023-06-26T04:15:24;23.30;1.00
702;DHT22;334;48.808;9.222;2023-06-26T04:16:29;23.30;1.00
702;DHT22;334;48.808;9.222;2023-06-26T04:17:31;23.30;1.00
702;DHT22;334;48.808;9.222;2023-06-26T04:18:33;23.30;1.00
702;DHT22;334;48.808;9.222;2023-06-26T04:19:35;23.30;1.00
702;DHT22;334;48.808;9.222;2023-06-26T04:21:04;23.40;1.00
702;DHT22;334;48.808;9.222;2023-06-26T04:22:07;23.40;1.00
702;DHT22;334;48.808;9.222;2023-06-26T04:23:09;23.40;1.00
702;DHT22;334;48.808;9.222;2023-06-26T04:24:11;23.30;1.00
702;DHT22;334;48.808;9.222;2023-06-26T04:25:16;23.40;1.00
702;DHT22;334;48.808;9.222;2023-06-26T04:26:18;23.40;1.00
702;DHT22;334;48.808;9.222;2023-06-26T04:27:19;23.40;1.00
702;DHT22;334;48.808;9.222;2023-06-26T04:28:21;23.30;1.00
702;DHT22;334;48.808;9.222;2023-06-26T04:29:25;23.30;1.00
702;DHT22;334;48.808;9.222;2023-06-26T04:30:27;23.30;1.00
702;DHT22;334;48.808;9.222;2023-06-26T04:31:29;23.30;1.00
702;DHT22;334;48.808;9.222;2023-06-26T04:32:31;23.30;1.00
702;DHT22;334;48.808;9.222;2023-06-26T04:33:34;23.30;1.00
702;DHT22;334;48.808;9.222;2023-06-26T04:34:37;23.40;1.00
702;DHT22;334;48.808;9.222;2023-06-26T04:35:42;23.40;1.00
702;DHT22;334;48.808;9.222;2023-06-26T04:36:50;23.30;1.00
702;DHT22;334;48.808;9.222;2023-06-26T04:37:52;23.40;1.00
702;DHT22;334;48.808;9.222;2023-06-26T04:38:55;23.40;1.00
702;DHT22;334;48.808;9.222;2023-06-26T04:39:57;23.30;1.00
702;DHT22;334;48.808;9.222;2023-06-26T04:40:59;23.30;1.00
702;DHT22;334;48.808;9.222;2023-06-26T04:42:01;23.40;1.00
702;DHT22;334;48.808;9.222;2023-06-26T04:43:03;23.40;1.00
702;DHT22;334;48.808;9.222;2023-06-26T04:44:05;23.50;1.00
702;DHT22;334;48.808;9.222;2023-06-26T04:45:07;23.40;1.00
702;DHT22;334;48.808;9.222;2023-06-26T04:46:08;23.50;1.00
702;DHT22;334;48.808;9.222;2023-06-26T04:47:11;23.50;1.00
702;DHT22;334;48.808;9.222;2023-06-26T04:48:16;23.50;1.00
702;DHT22;334;48.808;9.222;2023-06-26T04:49:18;23.60;1.00
702;DHT22;334;48.808;9.222;2023-06-26T04:50:20;23.60;1.00
702;DHT22;334;48.808;9.222;2023-06-26T04:51:22;23.50;1.00
702;DHT22;334;48.808;9.222;2023-06-26T04:52:25;23.50;1.00
702;DHT22;334;48.808;9.222;2023-06-26T04:53:27;23.50;1.00
702;DHT22;334;48.808;9.222;2023-06-26T04:54:29;23.60;1.00
702;DHT22;334;48.808;9.222;2023-06-26T04:55:31;23.60;1.00
702;DHT22;334;48.808;9.222;2023-06-26T04:56:34;23.60;1.00
702;DHT22;334;48.808;9.222;2023-06-26T04:57:35;23.60;1.00
702;DHT22;334;48.808;9.222;2023-06-26T04:58:38;23.60;1.00
702;DHT22;334;48.808;9.222;2023-06-26T04:59:40;23.60;1.00
702;DHT22;334;48.808;9.222;2023-06-26T05:00:44;23.50;1.00
702;DHT22;334;48.808;9.222;2023-06-26T05:01:46;23.50;1.00
702;DHT22;334;48.808;9.222;2023-06-26T05:02:50;23.50;1.00
702;DHT22;334;48.808;9.222;2023-06-26T05:04:00;23.50;1.00
702;DHT22;334;48.808;9.222;2023-06-26T05:05:05;23.60;1.00
702;DHT22;334;48.808;9.222;2023-06-26T05:06:07;23.60;1.00
702;DHT22;334;48.808;9.222;2023-06-26T05:07:10;23.60;1.00
702;DHT22;334;48.808;9.222;2023-06-26T05:08:24;23.60;1.00
702;DHT22;334;48.808;9.222;2023-06-26T05:09:27;23.60;1.00
702;DHT22;334;48.808;9.222;2023-06-26T05:10:29;23.70;1.00
702;DHT22;334;48.808;9.222;2023-06-26T05:11:32;23.70;1.00
702;DHT22;334;48.808;9.222;2023-06-26T05:12:34;23.70;1.00
702;DHT22;334;48.808;9.222;2023-06-26T05:13:36;23.70;1.00
702;DHT22;334;48.808;9.222;2023-06-26T05:14:38;23.70;1.00
702;DHT22;334;48.808;9.222;2023-06-26T05:15:41;23.70;1.00
702;DHT22;334;48.808;9.222;2023-06-26T05:16:44;23.60;1.00
702;DHT22;334;48.808;9.222;2023-06-26T05:17:46;23.60;1.00
702;DHT22;334;48.808;9.222;2023-06-26T05:18:48;23.60;1.00
702;DHT22;334;48.808;9.222;2023-06-26T05:19:49;23.60;1.00
702;DHT22;334;48.808;9.222;2023-06-26T05:20:51;23.60;1.00
702;DHT22;334;48.808;9.222;2023-06-26T05:21:54;23.60;1.00
702;DHT22;334;48.808;9.222;2023-06-26T05:22:56;23.60;1.00
702;DHT22;334;48.808;9.222;2023-06-26T05:24:00;23.50;1.00
702;DHT22;334;48.808;9.222;2023-06-26T05:25:05;23.50;1.00
702;DHT22;334;48.808;9.222;2023-06-26T05:26:08;23.50;1.00
702;DHT22;334;48.808;9.222;2023-06-26T05:27:10;23.50;1.00
702;DHT22;334;48.808;9.222;2023-06-26T05:28:14;23.50;1.00
702;DHT22;334;48.808;9.222;2023-06-26T05:29:17;23.50;1.00
702;DHT22;334;48.808;9.222;2023-06-26T05:30:19;23.50;1.00
702;DHT22;334;48.808;9.222;2023-06-26T05:31:21;23.50;1.00
702;DHT22;334;48.808;9.222;2023-06-26T05:32:24;23.50;1.00
702;DHT22;334;48.808;9.222;2023-06-26T05:33:27;23.50;1.00
702;DHT22;334;48.808;9.222;2023-06-26T05:34:29;23.50;1.00
702;DHT22;334;48.808;9.222;2023-06-26T05:35:34;23.50;1.00
702;DHT22;334;48.808;9.222;2023-06-26T05:36:38;23.60;1.00
702;DHT22;334;48.808;9.222;2023-06-26T05:37:42;23.60;1.00
702;DHT22;334;48.808;9.222;2023-06-26T05:38:45;23.60;1.00
702;DHT22;334;48.808;9.222;2023-06-26T05:39:47;23.70;1.00
702;DHT22;334;48.808;9.222;2023-06-26T05:40:50;23.70;1.00
702;DHT22;334;48.808;9.222;2023-06-26T05:41:52;23.80;1.00
702;DHT22;334;48.808;9.222;2023-06-26T05:42:54;23.80;1.00
702;DHT22;334;48.808;9.222;2023-06-26T05:43:55;23.90;1.00
702;DHT22;334;48.808;9.222;2023-06-26T05:44:58;23.90;1.00
702;DHT22;334;48.808;9.222;2023-06-26T05:46:00;24.00;1.00
702;DHT22;334;48.808;9.222;2023-06-26T05:47:02;24.00;1.00
702;DHT22;334;48.808;9.222;2023-06-26T05:48:05;24.00;1.00
702;DHT22;334;48.808;9.222;2023-06-26T05:49:07;24.10;1.00
702;DHT22;334;48.808;9.222;2023-06-26T05:50:09;24.10;1.00
702;DHT22;334;48.808;9.222;2023-06-26T05:51:12;24.20;1.00
702;DHT22;334;48.808;9.222;2023-06-26T05:52:14;24.30;1.00
702;DHT22;334;48.808;9.222;2023-06-26T05:53:16;24.30;1.00
702;DHT22;334;48.808;9.222;2023-06-26T05:54:19;24.40;1.00
702;DHT22;334;48.808;9.222;2023-06-26T05:55:23;24.50;1.00
702;DHT22;334;48.808;9.222;2023-06-26T05:56:25;24.60;1.00
702;DHT22;334;48.808;9.222;2023-06-26T05:57:28;24.70;1.00
702;DHT22;334;48.808;9.222;2023-06-26T05:58:30;24.80;1.00
702;DHT22;334;48.808;9.222;2023-06-26T05:59:32;24.80;1.00
702;DHT22;334;48.808;9.222;2023-06-26T06:00:36;24.90;1.00
702;DHT22;334;48.808;9.222;2023-06-26T06:01:39;24.90;1.00
702;DHT22;334;48.808;9.222;2023-06-26T06:02:43;25.00;1.00
702;DHT22;334;48.808;9.222;2023-06-26T06:03:45;25.10;1.00
702;DHT22;334;48.808;9.222;2023-06-26T06:04:49;25.10;1.00
702;DHT22;334;48.808;9.222;2023-06-26T06:05:52;25.20;1.00
702;DHT22;334;48.808;9.222;2023-06-26T06:06:54;25.30;1.00
702;DHT22;334;48.808;9.222;2023-06-26T06:07:56;25.30;1.00
702;DHT22;334;48.808;9.222;2023-06-26T06:08:58;25.40;1.00
702;DHT22;334;48.808;9.222;2023-06-26T06:10:00;25.40;1.00
702;DHT22;334;48.808;9.222;2023-06-26T06:11:02;25.50;1.00
702;DHT22;334;48.808;9.222;2023-06-26T06:12:07;25.60;1.00
702;DHT22;334;48.808;9.222;2023-06-26T06:13:09;25.60;1.00
702;DHT22;334;48.808;9.222;2023-06-26T06:14:12;25.60;1.00
702;DHT22;334;48.808;9.222;2023-06-26T06:15:14;25.70;1.00
702;DHT22;334;48.808;9.222;2023-06-26T06:16:17;25.80;1.00
702;DHT22;334;48.808;9.222;2023-06-26T06:17:21;25.80;1.00
702;DHT22;334;48.808;9.222;2023-06-26T06:18:24;25.90;1.00
702;DHT22;334;48.808;9.222;2023-06-26T06:19:27;26.00;1.00
702;DHT22;334;48.808;9.222;2023-06-26T06:20:28;26.00;1.00
702;DHT22;334;48.808;9.222;2023-06-26T06:21:30;26.10;1.00
702;DHT22;334;48.808;9.222;2023-06-26T06:22:32;26.20;1.00
702;DHT22;334;48.808;9.222;2023-06-26T06:23:35;26.30;1.00
702;DHT22;334;48.808;9.222;2023-06-26T06:24:36;26.40;1.00
702;DHT22;334;48.808;9.222;2023-06-26T06:25:38;26.50;1.00
702;DHT22;334;48.808;9.222;2023-06-26T06:26:40;26.50;1.00
702;DHT22;334;48.808;9.222;2023-06-26T06:27:44;26.60;1.00
702;DHT22;334;48.808;9.222;2023-06-26T06:28:46;26.70;1.00
702;DHT22;334;48.808;9.222;2023-06-26T06:29:47;26.70;1.00
702;DHT22;334;48.808;9.222;2023-06-26T06:30:49;26.80;1.00
702;DHT22;334;48.808;9.222;2023-06-26T06:31:52;26.90;1.00
702;DHT22;334;48.808;9.222;2023-06-26T06:32:54;27.00;1.00
702;DHT22;334;48.808;9.222;2023-06-26T06:33:57;27.10;1.00
702;DHT22;334;48.808;9.222;2023-06-26T06:34:58;27.10;1.00
702;DHT22;334;48.808;9.222;2023-06-26T06:36:00;27.20;1.00
702;DHT22;334;48.808;9.222;2023-06-26T06:37:03;27.20;1.00
702;DHT22;334;48.808;9.222;2023-06-26T06:38:05;27.30;1.00
702;DHT22;334;48.808;9.222;2023-06-26T06:39:07;27.40;1.00
702;DHT22;334;48.808;9.222;2023-06-26T06:40:10;27.50;1.00
702;DHT22;334;48.808;9.222;2023-06-26T06:41:13;27.50;1.00
702;DHT22;334;48.808;9.222;2023-06-26T06:42:15;27.50;1.00
702;DHT22;334;48.808;9.222;2023-06-26T06:43:17;27.50;1.00
702;DHT22;334;48.808;9.222;2023-06-26T06:44:19;27.60;1.00
702;DHT22;334;48.808;9.222;2023-06-26T06:45:21;27.60;1.00
702;DHT22;334;48.808;9.222;2023-06-26T06:46:23;27.70;1.00
702;DHT22;334;48.808;9.222;2023-06-26T06:47:27;27.70;1.00
702;DHT22;334;48.808;9.222;2023-06-26T06:48:29;27.80;1.00
702;DHT22;334;48.808;9.222;2023-06-26T06:49:31;27.80;1.00
702;DHT22;334;48.808;9.222;2023-06-26T06:50:32;27.80;1.00
702;DHT22;334;48.808;9.222;2023-06-26T06:51:35;27.80;1.00
702;DHT22;334;48.808;9.222;2023-06-26T06:52:38;27.80;1.00
702;DHT22;334;48.808;9.222;2023-06-26T06:53:40;27.90;1.00
702;DHT22;334;48.808;9.222;2023-06-26T06:54:56;27.90;1.00
702;DHT22;334;48.808;9.222;2023-06-26T06:56:00;28.00;1.00
702;DHT22;334;48.808;9.222;2023-06-26T06:57:02;28.00;1.00
702;DHT22;334;48.808;9.222;2023-06-26T06:58:04;28.00;1.00
702;DHT22;334;48.808;9.222;2023-06-26T06:59:06;27.90;1.00
702;DHT22;334;48.808;9.222;2023-06-26T07:00:10;28.00;1.00
702;DHT22;334;48.808;9.222;2023-06-26T07:01:13;27.90;1.00
702;DHT22;334;48.808;9.222;2023-06-26T07:02:17;27.90;1.00
702;DHT22;334;48.808;9.222;2023-06-26T07:03:21;27.90;1.00
702;DHT22;334;48.808;9.222;2023-06-26T07:04:23;27.90;1.00
702;DHT22;334;48.808;9.222;2023-06-26T07:05:26;27.80;1.00
702;DHT22;334;48.808;9.222;2023-06-26T07:06:27;27.80;1.00
702;DHT22;334;48.808;9.222;2023-06-26T07:07:31;27.80;1.00
702;DHT22;334;48.808;9.222;2023-06-26T07:08:33;27.80;1.00
702;DHT22;334;48.808;9.222;2023-06-26T07:09:35;27.80;1.00
702;DHT22;334;48.808;9.222;2023-06-26T07:10:36;27.80;1.00
702;DHT22;334;48.808;9.222;2023-06-26T07:11:39;27.80;1.00
702;DHT22;334;48.808;9.222;2023-06-26T07:12:40;27.80;1.00
702;DHT22;334;48.808;9.222;2023-06-26T07:13:44;27.80;1.00
702;DHT22;334;48.808;9.222;2023-06-26T07:14:48;27.80;1.00
702;DHT22;334;48.808;9.222;2023-06-26T07:15:50;27.80;1.00
702;DHT22;334;48.808;9.222;2023-06-26T07:16:52;27.80;1.00
702;DHT22;334;48.808;9.222;2023-06-26T07:17:53;27.80;1.00
702;DHT22;334;48.808;9.222;2023-06-26T07:18:56;27.90;1.00
702;DHT22;334;48.808;9.222;2023-06-26T07:19:59;28.00;1.00